createdAt,value
2023-01-30T00:01:28.157Z,0.70
2023-01-30T00:03:55.802Z,0.68
2023-01-30T00:06:24.117Z,0.70
2023-01-30T00:08:51.640Z,0.70
2023-01-30T00:11:20.099Z,0.68
2023-01-30T00:13:50.584Z,0.70
2023-01-30T00:16:18.721Z,0.50
2023-01-30T00:18:46.082Z,0.70
2023-01-30T00:21:15.554Z,0.85
2023-01-30T00:23:43.900Z,0.57
2023-01-30T00:26:12.564Z,0.80
2023-01-30T00:28:40.665Z,0.60
2023-01-30T00:31:09.022Z,0.77
2023-01-30T00:33:38.636Z,0.63
2023-01-30T00:36:06.511Z,0.65
2023-01-30T00:38:33.795Z,0.82
2023-01-30T00:41:00.753Z,0.80
2023-01-30T00:43:46.372Z,0.60
2023-01-30T00:46:51.057Z,0.70
2023-01-30T00:49:18.210Z,0.70
2023-01-30T00:51:45.434Z,0.80
2023-01-30T00:54:12.366Z,0.60
2023-01-30T00:56:39.303Z,0.60
2023-01-30T00:59:06.215Z,0.70
2023-01-30T01:01:33.118Z,0.82
2023-01-30T01:04:00.110Z,0.60
2023-01-30T01:06:27.115Z,0.60
2023-01-30T01:08:54.098Z,0.50
2023-01-30T01:11:27.135Z,0.80
2023-01-30T01:14:00.500Z,0.70
2023-01-30T01:16:29.999Z,0.77
2023-01-30T01:18:56.961Z,0.57
2023-01-30T01:21:24.339Z,0.70
2023-01-30T01:23:53.360Z,0.88
2023-01-30T01:26:21.144Z,0.60
2023-01-30T01:28:48.318Z,0.70
2023-01-30T01:31:17.473Z,0.60
2023-01-30T01:33:44.664Z,0.60
2023-01-30T01:36:16.228Z,0.75
2023-01-30T01:38:46.914Z,0.60
2023-01-30T01:41:16.973Z,0.70
2023-01-30T01:44:13.722Z,0.77
2023-01-30T01:46:59.919Z,0.80
2023-01-30T01:49:30.670Z,0.70
2023-01-30T01:52:11.455Z,0.60
2023-01-30T01:54:59.699Z,0.60
2023-01-30T01:57:41.886Z,0.57
2023-01-30T02:00:16.635Z,0.70
2023-01-30T02:02:54.339Z,0.82
2023-01-30T02:05:21.420Z,0.60
2023-01-30T02:08:11.489Z,0.80
2023-01-30T02:10:56.971Z,0.70
2023-01-30T02:13:24.080Z,0.60
2023-01-30T02:15:52.049Z,0.70
2023-01-30T02:18:19.977Z,0.80
2023-01-30T02:21:10.877Z,0.80
2023-01-30T02:24:02.639Z,0.60
2023-01-30T02:27:09.476Z,0.50
2023-01-30T02:30:02.476Z,0.43
2023-01-30T02:33:04.816Z,0.50
2023-01-30T02:36:06.818Z,0.60
2023-01-30T02:38:45.225Z,0.50
2023-01-30T02:41:53.181Z,0.85
2023-01-30T02:44:44.386Z,0.60
2023-01-30T02:47:21.166Z,0.60
2023-01-30T02:50:02.291Z,0.50
2023-01-30T02:52:31.082Z,0.70
2023-01-30T02:54:57.948Z,0.60
2023-01-30T02:57:27.252Z,0.50
2023-01-30T03:00:04.940Z,0.73
2023-01-30T03:03:10.877Z,0.50
2023-01-30T03:06:24.765Z,0.60
2023-01-30T03:09:27.939Z,0.60
2023-01-30T03:12:14.953Z,0.60
2023-01-30T03:14:59.152Z,0.50
2023-01-30T03:17:29.622Z,0.40
2023-01-30T03:19:56.740Z,0.60
2023-01-30T03:22:23.808Z,0.55
2023-01-30T03:24:54.375Z,0.50
2023-01-30T03:27:22.968Z,0.60
2023-01-30T03:29:49.899Z,0.50
2023-01-30T03:32:16.998Z,0.60
2023-01-30T03:34:43.951Z,0.70
2023-01-30T03:37:10.882Z,0.50
2023-01-30T03:39:38.040Z,0.70
2023-01-30T03:42:05.075Z,0.60
2023-01-30T03:44:31.946Z,0.70
2023-01-30T03:46:58.994Z,0.40
2023-01-30T03:49:26.068Z,0.60
2023-01-30T03:51:52.893Z,0.60
2023-01-30T03:54:19.969Z,0.65
2023-01-30T03:56:46.905Z,0.60
2023-01-30T03:59:13.867Z,0.88
2023-01-30T04:01:40.863Z,0.70
2023-01-30T04:04:07.800Z,0.63
2023-01-30T04:06:36.591Z,0.60
2023-01-30T04:09:03.909Z,0.90
2023-01-30T04:11:30.795Z,0.43
2023-01-30T04:13:57.815Z,0.60
2023-01-30T04:16:27.938Z,0.68
2023-01-30T04:18:54.931Z,0.55
2023-01-30T04:21:21.967Z,0.50
2023-01-30T04:23:48.927Z,0.60
2023-01-30T04:26:16.371Z,0.55
2023-01-30T04:28:44.535Z,0.50
2023-01-30T04:31:12.160Z,0.63
2023-01-30T04:33:40.149Z,0.68
2023-01-30T04:36:09.525Z,0.60
2023-01-30T04:38:37.524Z,0.55
2023-01-30T04:41:05.477Z,0.60
2023-01-30T04:43:33.054Z,0.95
2023-01-30T04:45:59.996Z,0.60
2023-01-30T04:48:28.023Z,0.60
2023-01-30T04:50:56.838Z,0.55
2023-01-30T04:53:25.176Z,0.40
2023-01-30T04:55:52.672Z,0.50
2023-01-30T04:58:19.692Z,0.52
2023-01-30T05:00:47.945Z,0.60
2023-01-30T05:03:16.226Z,0.50
2023-01-30T05:05:49.752Z,0.50
2023-01-30T05:08:16.886Z,0.65
2023-01-30T05:10:43.785Z,0.43
2023-01-30T05:13:10.733Z,0.40
2023-01-30T05:15:40.023Z,0.60
2023-01-30T05:18:06.933Z,0.60
2023-01-30T05:20:33.798Z,0.45
2023-01-30T05:23:00.668Z,0.60
2023-01-30T05:25:27.847Z,0.60
2023-01-30T05:27:54.735Z,0.60
2023-01-30T05:30:21.809Z,0.50
2023-01-30T05:32:48.750Z,0.60
2023-01-30T05:35:16.061Z,0.50
2023-01-30T05:37:43.122Z,0.38
2023-01-30T05:40:11.557Z,0.40
2023-01-30T05:42:38.569Z,0.50
2023-01-30T05:45:06.325Z,0.40
2023-01-30T05:47:33.233Z,0.50
2023-01-30T05:50:00.162Z,0.50
2023-01-30T05:52:27.050Z,0.43
2023-01-30T05:54:54.033Z,0.50
2023-01-30T05:57:20.951Z,0.40
2023-01-30T05:59:47.914Z,0.40
2023-01-30T06:02:14.751Z,0.40
2023-01-30T06:04:41.722Z,0.40
2023-01-30T06:07:08.747Z,0.40
2023-01-30T06:09:35.709Z,0.40
2023-01-30T06:12:02.534Z,0.50
2023-01-30T06:14:29.495Z,0.50
2023-01-30T06:16:56.420Z,0.40
2023-01-30T06:19:23.421Z,0.40
2023-01-30T06:21:50.337Z,0.40
2023-01-30T06:24:17.238Z,0.50
2023-01-30T06:26:44.245Z,0.47
2023-01-30T06:29:11.223Z,0.38
2023-01-30T06:31:38.073Z,0.40
2023-01-30T06:34:05.066Z,0.40
2023-01-30T06:36:32.803Z,0.40
2023-01-30T06:38:59.760Z,0.40
2023-01-30T06:41:26.728Z,0.30
2023-01-30T06:43:53.764Z,0.40
2023-01-30T06:46:20.740Z,0.47
2023-01-30T06:48:47.927Z,0.40
2023-01-30T06:51:14.860Z,0.38
2023-01-30T06:53:41.769Z,0.50
2023-01-30T06:56:08.935Z,0.32
2023-01-30T06:58:35.864Z,0.40
2023-01-30T07:01:03.156Z,0.45
2023-01-30T07:03:30.119Z,0.47
2023-01-30T07:05:57.130Z,0.50
2023-01-30T07:08:24.490Z,0.50
2023-01-30T07:10:51.584Z,0.35
2023-01-30T07:13:18.412Z,0.30
2023-01-30T07:15:45.775Z,0.40
2023-01-30T07:18:13.107Z,0.45
2023-01-30T07:20:42.165Z,0.50
2023-01-30T07:23:09.182Z,0.40
2023-01-30T07:25:36.076Z,0.40
2023-01-30T07:28:03.454Z,0.40
2023-01-30T07:30:33.691Z,0.50
2023-01-30T07:33:01.006Z,0.40
2023-01-30T07:35:34.524Z,0.50
2023-01-30T07:38:01.768Z,0.52
2023-01-30T07:40:28.970Z,0.60
2023-01-30T07:42:58.875Z,0.80
2023-01-30T07:45:29.776Z,0.70
2023-01-30T07:47:56.802Z,0.80
2023-01-30T07:50:23.711Z,0.52
2023-01-30T07:52:50.644Z,0.50
2023-01-30T07:55:18.083Z,0.70
2023-01-30T07:58:17.328Z,0.75
2023-01-30T08:00:44.759Z,0.87
2023-01-30T08:03:16.033Z,0.77
2023-01-30T08:05:45.167Z,0.70
2023-01-30T08:08:12.135Z,0.55
2023-01-30T08:10:39.126Z,0.73
2023-01-30T08:13:06.106Z,0.68
2023-01-30T08:15:33.572Z,0.63
2023-01-30T08:18:00.934Z,0.57
2023-01-30T08:20:29.173Z,0.60
2023-01-30T08:22:56.544Z,0.73
2023-01-30T08:25:23.847Z,0.45
2023-01-30T08:27:51.673Z,0.57
2023-01-30T08:30:20.239Z,0.60
2023-01-30T08:32:47.429Z,1.17
2023-01-30T08:35:14.757Z,1.55
2023-01-30T08:37:42.815Z,1.08
2023-01-30T08:40:12.273Z,1.00
2023-01-30T08:42:39.270Z,0.70
2023-01-30T08:45:07.290Z,1.20
2023-01-30T08:47:35.739Z,0.90
2023-01-30T08:50:04.768Z,0.80
2023-01-30T08:52:33.836Z,0.80
2023-01-30T08:55:00.758Z,0.73
2023-01-30T08:57:27.860Z,0.70
2023-01-30T08:59:56.870Z,0.60
2023-01-30T09:02:23.918Z,0.70
2023-01-30T09:04:50.872Z,0.90
2023-01-30T09:07:17.981Z,0.70
2023-01-30T09:09:44.903Z,0.60
2023-01-30T09:12:11.867Z,0.60
2023-01-30T09:14:38.786Z,0.50
2023-01-30T09:17:05.830Z,0.63
2023-01-30T09:19:32.821Z,0.52
2023-01-30T09:21:59.805Z,0.50
2023-01-30T09:24:27.801Z,0.65
2023-01-30T09:26:58.821Z,0.70
2023-01-30T09:29:29.622Z,0.50
2023-01-30T09:31:57.211Z,0.52
2023-01-30T09:34:29.145Z,0.60
2023-01-30T09:37:02.587Z,0.50
2023-01-30T09:39:31.248Z,0.50
2023-01-30T09:42:29.309Z,0.50
2023-01-30T09:45:08.023Z,0.30
2023-01-30T09:48:02.744Z,0.45
2023-01-30T09:50:55.475Z,0.50
2023-01-30T09:54:01.221Z,0.40
2023-01-30T09:56:28.517Z,0.50
2023-01-30T09:59:01.384Z,0.40
2023-01-30T10:01:56.249Z,0.40
2023-01-30T10:04:39.026Z,0.47
2023-01-30T10:07:13.393Z,0.30
2023-01-30T10:10:14.459Z,0.43
2023-01-30T10:13:19.031Z,0.50
2023-01-30T10:16:18.544Z,0.50
2023-01-30T10:19:06.662Z,0.40
2023-01-30T10:22:11.273Z,0.40
2023-01-30T10:25:01.268Z,0.28
2023-01-30T10:27:31.321Z,0.40
2023-01-30T10:30:05.143Z,0.40
2023-01-30T10:33:22.613Z,0.50
2023-01-30T10:36:14.645Z,0.40
2023-01-30T10:38:51.153Z,0.40
2023-01-30T10:41:30.879Z,0.32
2023-01-30T10:44:10.180Z,0.50
2023-01-30T10:47:07.229Z,0.30
2023-01-30T10:49:55.773Z,0.40
2023-01-30T10:52:44.624Z,0.38
2023-01-30T10:55:22.120Z,0.40
2023-01-30T10:58:34.030Z,0.40
2023-01-30T11:01:12.523Z,0.40
2023-01-30T11:03:51.852Z,0.40
2023-01-30T11:06:28.090Z,0.40
2023-01-30T11:08:57.942Z,0.38
2023-01-30T11:11:52.260Z,0.50
2023-01-30T11:14:20.369Z,0.50
2023-01-30T11:16:58.456Z,0.68
2023-01-30T11:19:37.392Z,0.57
2023-01-30T11:22:06.220Z,0.50
2023-01-30T11:24:45.392Z,0.30
2023-01-30T11:27:31.399Z,0.45
2023-01-30T11:30:13.465Z,0.93
2023-01-30T11:32:45.274Z,0.60
2023-01-30T11:35:14.927Z,0.45
2023-01-30T11:37:45.585Z,0.50
2023-01-30T11:40:19.167Z,0.45
2023-01-30T11:42:49.969Z,0.50
2023-01-30T11:45:27.261Z,0.35
2023-01-30T11:48:04.445Z,1.00
2023-01-30T11:50:44.922Z,1.30
2023-01-30T11:53:54.087Z,1.00
2023-01-30T11:56:49.433Z,0.70
2023-01-30T11:59:43.829Z,0.82
2023-01-30T12:02:32.888Z,0.80
2023-01-30T12:05:06.863Z,1.15
2023-01-30T12:07:37.889Z,1.05
2023-01-30T12:10:30.952Z,0.60
2023-01-30T12:13:08.258Z,1.08
2023-01-30T12:15:39.068Z,0.90
2023-01-30T12:18:29.916Z,0.88
2023-01-30T12:21:14.425Z,0.73
2023-01-30T12:23:44.936Z,1.30
2023-01-30T12:26:28.940Z,1.45
2023-01-30T12:29:24.353Z,1.33
2023-01-30T12:32:15.153Z,1.60
2023-01-30T12:34:45.572Z,1.38
2023-01-30T12:37:33.271Z,1.08
2023-01-30T12:40:36.287Z,0.90
2023-01-30T12:43:17.000Z,1.17
2023-01-30T12:46:06.597Z,0.90
2023-01-30T12:49:10.991Z,1.23
2023-01-30T12:52:18.445Z,0.77
2023-01-30T12:55:07.188Z,1.08
2023-01-30T12:57:50.808Z,0.95
2023-01-30T13:00:27.146Z,0.80
2023-01-30T13:03:35.023Z,1.02
2023-01-30T13:06:52.098Z,1.00
2023-01-30T13:09:49.392Z,0.70
2023-01-30T13:12:43.440Z,0.90
2023-01-30T13:15:40.447Z,0.90
2023-01-30T13:18:20.909Z,0.98
2023-01-30T13:21:23.507Z,0.70
2023-01-30T13:24:21.882Z,0.90
2023-01-30T13:26:51.090Z,0.82
2023-01-30T13:29:40.195Z,0.82
2023-01-30T13:32:25.791Z,0.80
2023-01-30T13:34:56.956Z,0.70
2023-01-30T13:37:23.897Z,1.08
2023-01-30T13:40:03.913Z,1.60
2023-01-30T13:42:50.063Z,0.80
2023-01-30T13:45:25.939Z,1.02
2023-01-30T13:48:35.755Z,0.65
2023-01-30T13:51:42.377Z,0.70
2023-01-30T13:54:32.923Z,0.75
2023-01-30T13:57:42.142Z,0.70
2023-01-30T14:00:35.527Z,0.60
2023-01-30T14:03:08.772Z,0.75
2023-01-30T14:05:54.388Z,0.70
2023-01-30T14:08:25.785Z,0.70
2023-01-30T14:10:55.676Z,0.65
2023-01-30T14:13:25.617Z,0.68
2023-01-30T14:16:01.153Z,0.70
2023-01-30T14:18:31.247Z,0.80
2023-01-30T14:21:26.313Z,0.60
2023-01-30T14:24:05.512Z,0.95
2023-01-30T14:26:47.910Z,0.60
2023-01-30T14:29:38.115Z,0.70
2023-01-30T14:32:18.833Z,0.73
2023-01-30T14:35:01.936Z,0.77
2023-01-30T14:37:38.046Z,0.70
2023-01-30T14:40:27.514Z,0.60
2023-01-30T14:43:36.320Z,0.80
2023-01-30T14:46:18.271Z,0.70
2023-01-30T14:48:50.558Z,0.70
2023-01-30T14:51:36.390Z,0.70
2023-01-30T14:54:12.837Z,0.50
2023-01-30T14:57:01.128Z,0.52
2023-01-30T14:59:46.455Z,0.43
2023-01-30T15:02:13.865Z,0.75
2023-01-30T15:05:02.066Z,0.57
2023-01-30T15:07:40.401Z,0.52
2023-01-30T15:10:48.708Z,0.47
2023-01-30T15:13:41.417Z,0.70
2023-01-30T15:16:36.741Z,0.40
2023-01-30T15:19:43.530Z,0.43
2023-01-30T15:23:00.318Z,0.60
2023-01-30T15:25:54.368Z,0.70
2023-01-30T15:28:52.187Z,0.70
2023-01-30T15:31:23.524Z,0.70
2023-01-30T15:33:54.666Z,1.00
2023-01-30T15:36:35.525Z,0.73
2023-01-30T15:39:19.467Z,0.75
2023-01-30T15:41:46.417Z,0.63
2023-01-30T15:44:39.405Z,0.70
2023-01-30T15:47:14.400Z,0.52
2023-01-30T15:50:20.105Z,0.60
2023-01-30T15:52:51.792Z,0.70
2023-01-30T15:55:33.233Z,0.50
2023-01-30T15:58:08.997Z,0.57
2023-01-30T16:00:44.080Z,0.65
2023-01-30T16:03:17.119Z,0.60
2023-01-30T16:05:57.099Z,0.60
2023-01-30T16:08:30.975Z,0.80
2023-01-30T16:11:00.433Z,0.70
2023-01-30T16:13:29.147Z,0.55
2023-01-30T16:16:22.303Z,0.57
2023-01-30T16:18:59.422Z,0.73
2023-01-30T16:21:41.488Z,0.45
2023-01-30T16:24:38.180Z,0.50
2023-01-30T16:27:08.103Z,0.65
2023-01-30T16:29:52.855Z,0.70
2023-01-30T16:32:29.381Z,0.90
2023-01-30T16:35:26.973Z,0.80
2023-01-30T16:37:58.472Z,0.90
2023-01-30T16:40:42.601Z,0.80
2023-01-30T16:43:23.965Z,0.90
2023-01-30T16:45:53.654Z,1.00
2023-01-30T16:48:22.883Z,1.02
2023-01-30T16:51:22.806Z,0.75
2023-01-30T16:54:02.296Z,0.52
2023-01-30T16:56:36.441Z,0.70
2023-01-30T16:59:04.008Z,0.65
2023-01-30T17:01:41.545Z,0.90
2023-01-30T17:04:21.580Z,0.60
2023-01-30T17:07:05.021Z,0.60
2023-01-30T17:09:47.210Z,0.60
2023-01-30T17:12:31.684Z,0.70
2023-01-30T17:15:13.444Z,0.68
2023-01-30T17:17:41.661Z,0.70
2023-01-30T17:20:10.704Z,0.55
2023-01-30T17:22:44.811Z,0.57
2023-01-30T17:25:43.042Z,0.57
2023-01-30T17:28:21.244Z,0.60
2023-01-30T17:30:50.395Z,0.55
2023-01-30T17:33:17.512Z,0.50
2023-01-30T17:35:45.679Z,0.50
2023-01-30T17:38:13.010Z,0.60
2023-01-30T17:40:40.000Z,0.80
2023-01-30T17:43:07.060Z,0.50
2023-01-30T17:45:35.489Z,0.70
2023-01-30T17:48:02.437Z,0.50
2023-01-30T17:50:29.503Z,0.47
2023-01-30T17:52:56.588Z,0.50
2023-01-30T17:55:23.802Z,0.40
2023-01-30T17:57:50.807Z,0.30
2023-01-30T18:00:21.973Z,0.55
2023-01-30T18:02:49.472Z,0.50
2023-01-30T18:05:16.607Z,0.50
2023-01-30T18:07:44.177Z,0.50
2023-01-30T18:10:17.634Z,0.50
2023-01-30T18:12:48.139Z,0.40
2023-01-30T18:15:16.327Z,0.28
2023-01-30T18:17:47.706Z,0.50
2023-01-30T18:20:18.612Z,0.70
2023-01-30T18:22:46.448Z,0.30
2023-01-30T18:25:14.436Z,0.50
2023-01-30T18:27:47.200Z,0.40
2023-01-30T18:30:17.598Z,0.30
2023-01-30T18:32:53.688Z,0.30
2023-01-30T18:35:22.620Z,0.60
2023-01-30T18:37:50.219Z,0.40
2023-01-30T18:40:19.017Z,0.40
2023-01-30T18:42:46.700Z,0.45
2023-01-30T18:45:13.774Z,0.50
2023-01-30T18:47:41.309Z,0.40
2023-01-30T18:50:09.067Z,0.40
2023-01-30T18:52:36.284Z,0.55
2023-01-30T18:55:03.384Z,0.45
2023-01-30T18:57:30.350Z,0.40
2023-01-30T18:59:57.264Z,0.55
2023-01-30T19:02:24.251Z,0.40
2023-01-30T19:04:51.226Z,0.30
2023-01-30T19:07:19.025Z,0.40
2023-01-30T19:09:46.064Z,0.35
2023-01-30T19:12:31.528Z,0.40
2023-01-30T19:14:58.558Z,0.55
2023-01-30T19:17:25.535Z,0.40
2023-01-30T19:19:52.597Z,0.30
2023-01-30T19:22:19.603Z,0.40
2023-01-30T19:24:46.693Z,0.40
2023-01-30T19:27:13.990Z,0.38
2023-01-30T19:29:41.875Z,0.43
2023-01-30T19:32:12.585Z,0.30
2023-01-30T19:34:40.199Z,0.50
2023-01-30T19:37:07.459Z,0.57
2023-01-30T19:39:34.526Z,0.47
2023-01-30T19:42:01.486Z,0.30
2023-01-30T19:44:28.456Z,0.50
2023-01-30T19:46:55.774Z,0.50
2023-01-30T19:49:23.193Z,0.40
2023-01-30T19:51:50.071Z,0.50
2023-01-30T19:54:18.799Z,0.40
2023-01-30T19:56:48.419Z,0.32
2023-01-30T19:59:16.696Z,0.40
2023-01-30T20:01:43.992Z,0.30
2023-01-30T20:04:10.998Z,0.40
2023-01-30T20:06:42.926Z,0.40
2023-01-30T20:09:13.408Z,0.30
2023-01-30T20:11:41.954Z,0.30
2023-01-30T20:14:11.115Z,0.43
2023-01-30T20:16:38.683Z,0.30
2023-01-30T20:19:12.074Z,0.50
2023-01-30T20:21:39.100Z,0.30
2023-01-30T20:24:07.179Z,0.30
2023-01-30T20:26:37.104Z,0.40
2023-01-30T20:29:06.197Z,0.40
2023-01-30T20:31:34.718Z,0.30
2023-01-30T20:34:05.559Z,0.30
2023-01-30T20:36:32.861Z,0.30
2023-01-30T20:39:04.109Z,0.30
2023-01-30T20:41:38.816Z,0.50
2023-01-30T20:44:10.500Z,0.40
2023-01-30T20:46:45.009Z,0.40
2023-01-30T20:49:21.480Z,0.47
2023-01-30T20:51:52.011Z,0.40
2023-01-30T20:54:23.352Z,0.30
2023-01-30T20:56:53.440Z,0.40
2023-01-30T20:59:24.365Z,0.30
2023-01-30T21:01:52.406Z,0.20
2023-01-30T21:04:21.765Z,0.30
2023-01-30T21:06:48.851Z,0.50
2023-01-30T21:09:19.708Z,0.40
2023-01-30T21:11:48.616Z,0.30
2023-01-30T21:14:17.218Z,0.50
2023-01-30T21:16:44.853Z,0.43
2023-01-30T21:19:16.550Z,0.50
2023-01-30T21:21:55.078Z,0.40
2023-01-30T21:24:28.769Z,0.30
2023-01-30T21:26:57.141Z,0.40
2023-01-30T21:29:27.427Z,0.43
2023-01-30T21:31:57.025Z,0.30
2023-01-30T21:34:24.840Z,0.50
2023-01-30T21:37:10.581Z,0.38
2023-01-30T21:39:56.476Z,0.40
2023-01-30T21:42:42.154Z,0.38
2023-01-30T21:45:09.542Z,0.57
2023-01-30T21:47:36.979Z,0.35
2023-01-30T21:50:04.421Z,0.40
2023-01-30T21:52:33.339Z,0.30
2023-01-30T21:55:00.813Z,0.40
2023-01-30T21:57:27.805Z,0.38
2023-01-30T21:59:55.498Z,0.40
2023-01-30T22:02:22.539Z,0.30
2023-01-30T22:04:49.734Z,0.20
2023-01-30T22:07:16.743Z,0.30
2023-01-30T22:09:43.749Z,0.20
2023-01-30T22:12:11.006Z,0.30
2023-01-30T22:14:37.916Z,0.40
2023-01-30T22:17:04.843Z,0.30
2023-01-30T22:19:35.665Z,0.40
2023-01-30T22:22:03.942Z,0.20
2023-01-30T22:24:31.295Z,0.30
2023-01-30T22:26:58.525Z,0.50
2023-01-30T22:29:25.573Z,0.47
2023-01-30T22:31:52.621Z,0.30
2023-01-30T22:34:19.706Z,0.35
2023-01-30T22:36:47.938Z,0.50
2023-01-30T22:39:14.867Z,0.40
2023-01-30T22:41:41.803Z,0.40
2023-01-30T22:44:10.780Z,0.40
2023-01-30T22:46:40.233Z,0.30
2023-01-30T22:49:09.291Z,0.40
2023-01-30T22:51:39.877Z,0.30
2023-01-30T22:54:12.707Z,0.40
2023-01-30T22:56:46.423Z,0.40
2023-01-30T22:59:14.469Z,0.30
2023-01-30T23:01:45.424Z,0.30
2023-01-30T23:04:17.456Z,0.38
2023-01-30T23:06:45.192Z,0.30
2023-01-30T23:09:18.597Z,0.30
2023-01-30T23:12:11.937Z,0.38
2023-01-30T23:14:39.216Z,0.50
2023-01-30T23:17:25.590Z,0.30
2023-01-30T23:19:53.655Z,0.38
2023-01-30T23:22:21.215Z,0.47
2023-01-30T23:24:48.773Z,0.22
2023-01-30T23:27:15.933Z,0.32
2023-01-30T23:29:42.872Z,0.40
2023-01-30T23:32:09.843Z,0.40
2023-01-30T23:34:36.835Z,0.30
2023-01-30T23:37:03.842Z,0.32
2023-01-30T23:39:30.727Z,0.40
2023-01-30T23:41:57.568Z,0.47
2023-01-30T23:44:24.469Z,0.35
2023-01-30T23:46:51.707Z,0.50
2023-01-30T23:49:18.634Z,0.35
2023-01-30T23:51:45.725Z,0.20
2023-01-30T23:54:14.087Z,0.30
2023-01-30T23:56:44.883Z,0.30
2023-01-30T23:59:12.811Z,0.40
